createdAt,value
2018-03-01T00:17:30.271Z,51.2
2018-03-01T00:33:58.923Z,51.2
2018-03-01T00:50:27.554Z,50.8
2018-03-01T01:06:56.364Z,51.2
2018-03-01T01:23:25.052Z,51.2
2018-03-01T01:39:53.749Z,51.2
2018-03-01T01:56:22.464Z,50.8
2018-03-01T02:12:51.538Z,51.2
2018-03-01T02:29:20.252Z,50.4
2018-03-01T02:45:48.984Z,50.8
2018-03-01T03:02:17.562Z,50.8
2018-03-01T03:18:46.259Z,51.2
2018-03-01T03:35:14.947Z,51.2
2018-03-01T03:51:43.514Z,51.2
2018-03-01T04:08:12.266Z,51.2
2018-03-01T04:24:41.130Z,51.2
2018-03-01T04:41:10.101Z,51.2
2018-03-01T04:57:38.685Z,51.2
2018-03-01T05:14:07.448Z,51.2
2018-03-01T05:30:36.450Z,51.2
2018-03-01T05:47:05.228Z,51.2
2018-03-01T06:03:34.142Z,51.2
2018-03-01T06:20:02.981Z,51.2
2018-03-01T06:36:31.941Z,51.2
2018-03-01T06:53:01.370Z,50.8
2018-03-01T07:09:30.556Z,50.8
2018-03-01T07:25:59.253Z,50.4
2018-03-01T07:42:28.211Z,51.2
2018-03-01T07:58:56.934Z,50.4
2018-03-01T08:15:26.126Z,49.6
2018-03-01T08:31:55.709Z,48.8
2018-03-01T08:48:25.898Z,46.8
2018-03-01T09:04:55.982Z,46.4
2018-03-01T09:24:43.704Z,44.4
2018-03-01T09:41:14.040Z,44.8
2018-03-01T09:57:44.336Z,43.6
2018-03-01T10:10:56.720Z,44.0
2018-03-01T10:24:09.214Z,42.0
2018-03-01T10:40:39.891Z,42.4
2018-03-01T10:57:10.751Z,42.0
2018-03-01T11:13:41.746Z,41.2
2018-03-01T11:30:13.013Z,41.2
2018-03-01T11:46:44.348Z,40.4
2018-03-01T12:03:15.570Z,40.0
2018-03-01T12:16:28.728Z,40.8
2018-03-01T12:33:00.457Z,39.2
2018-03-01T12:49:32.085Z,38.8
2018-03-01T13:06:03.781Z,38.4
2018-03-01T13:22:35.439Z,39.2
2018-03-01T13:39:07.119Z,38.8
2018-03-01T13:55:38.722Z,38.8
2018-03-01T14:08:52.090Z,39.6
2018-03-01T14:25:24.040Z,38.0
2018-03-01T14:41:55.900Z,38.8
2018-03-01T14:58:27.820Z,38.4
2018-03-01T15:14:59.897Z,38.4
2018-03-01T15:31:31.663Z,39.2
2018-03-01T15:48:03.250Z,39.2
2018-03-01T16:04:34.761Z,39.6
2018-03-01T16:21:06.208Z,39.2
2018-03-01T17:10:39.576Z,42.0
2018-03-01T17:27:10.440Z,42.0
2018-03-01T17:43:41.251Z,42.4
2018-03-01T18:00:11.928Z,42.0
2018-03-01T18:16:42.580Z,42.4
2018-03-01T18:33:13.178Z,42.4
2018-03-01T19:06:14.157Z,42.4
2018-03-01T19:22:44.568Z,42.0
2018-03-01T19:39:14.891Z,42.4
2018-03-01T19:55:44.693Z,42.4
2018-03-01T20:12:14.590Z,42.8
2018-03-01T20:28:44.457Z,42.4
2018-03-01T20:45:14.173Z,43.2
2018-03-01T21:18:13.494Z,43.6
2018-03-01T21:34:43.044Z,44.0
2018-03-01T21:51:12.660Z,44.8
2018-03-01T22:07:42.279Z,44.8
2018-03-01T22:24:11.701Z,45.2
2018-03-01T22:40:41.141Z,45.6
2018-03-01T22:57:10.818Z,45.6
2018-03-01T23:13:40.125Z,45.6
2018-03-01T23:30:09.927Z,46.0
2018-03-01T23:46:39.967Z,46.0
